createdAt,value
2022-09-29T00:00:19.130Z,0.30
2022-09-29T00:02:48.510Z,0.30
2022-09-29T00:05:18.054Z,0.30
2022-09-29T00:07:47.503Z,0.38
2022-09-29T00:10:16.963Z,0.30
2022-09-29T00:12:49.352Z,0.40
2022-09-29T00:15:18.884Z,0.30
2022-09-29T00:18:12.124Z,0.30
2022-09-29T00:20:39.085Z,0.35
2022-09-29T00:23:10.785Z,0.30
2022-09-29T00:25:40.154Z,0.30
2022-09-29T00:28:12.496Z,0.40
2022-09-29T00:30:41.897Z,0.30
2022-09-29T00:33:11.240Z,0.30
2022-09-29T00:35:43.750Z,0.30
2022-09-29T00:38:13.086Z,0.30
2022-09-29T00:40:45.579Z,0.30
2022-09-29T00:43:25.581Z,0.40
2022-09-29T00:45:55.999Z,0.30
2022-09-29T00:48:33.227Z,0.30
2022-09-29T00:51:04.050Z,0.30
2022-09-29T00:53:34.656Z,0.30
2022-09-29T00:56:10.192Z,0.30
2022-09-29T00:59:01.105Z,0.30
2022-09-29T01:01:32.788Z,0.30
2022-09-29T01:04:18.127Z,0.40
2022-09-29T01:06:58.329Z,0.30
2022-09-29T01:09:35.430Z,0.30
2022-09-29T01:14:38.223Z,0.30
2022-09-29T01:17:07.775Z,0.40
2022-09-29T01:20:22.624Z,0.30
2022-09-29T01:23:35.923Z,0.40
2022-09-29T01:26:44.992Z,0.30
2022-09-29T01:29:35.500Z,0.30
2022-09-29T01:32:19.165Z,0.30
2022-09-29T01:35:17.353Z,0.30
2022-09-29T01:40:54.848Z,0.32
2022-09-29T01:43:36.913Z,0.40
2022-09-29T01:46:29.006Z,0.30
2022-09-29T01:48:59.346Z,0.30
2022-09-29T01:51:49.303Z,0.30
2022-09-29T01:54:27.692Z,0.30
2022-09-29T01:57:10.060Z,0.40
2022-09-29T01:59:56.152Z,0.30
2022-09-29T02:02:41.828Z,0.30
2022-09-29T02:05:29.341Z,0.30
2022-09-29T02:08:12.717Z,0.30
2022-09-29T02:11:01.073Z,0.30
2022-09-29T02:14:01.163Z,0.35
2022-09-29T02:16:37.039Z,0.40
2022-09-29T02:19:20.994Z,0.30
2022-09-29T02:21:54.480Z,0.40
2022-09-29T02:24:25.194Z,0.30
2022-09-29T02:26:54.597Z,0.30
2022-09-29T02:29:24.255Z,0.30
2022-09-29T02:31:57.371Z,0.30
2022-09-29T02:34:27.571Z,0.30
2022-09-29T02:37:41.416Z,0.30
2022-09-29T02:40:25.479Z,0.30
2022-09-29T02:43:21.477Z,0.30
2022-09-29T02:46:24.832Z,0.30
2022-09-29T02:49:23.253Z,0.30
2022-09-29T02:52:27.723Z,0.30
2022-09-29T02:55:10.663Z,0.30
2022-09-29T02:58:11.485Z,0.30
2022-09-29T03:00:41.905Z,0.30
2022-09-29T03:03:11.731Z,0.30
2022-09-29T03:05:41.234Z,0.30
2022-09-29T03:08:10.611Z,0.30
2022-09-29T03:10:39.928Z,0.30
2022-09-29T03:13:09.345Z,0.30
2022-09-29T03:15:38.699Z,0.30
2022-09-29T03:18:10.179Z,0.30
2022-09-29T03:20:39.805Z,0.38
2022-09-29T03:23:09.209Z,0.38
2022-09-29T03:25:38.546Z,0.30
2022-09-29T03:28:07.920Z,0.30
2022-09-29T03:30:37.257Z,0.20
2022-09-29T03:33:06.623Z,0.30
2022-09-29T03:35:35.982Z,0.30
2022-09-29T03:38:05.735Z,0.20
2022-09-29T03:40:35.101Z,0.30
2022-09-29T03:43:04.482Z,0.30
2022-09-29T03:45:33.879Z,0.40
2022-09-29T03:48:03.331Z,0.30
2022-09-29T03:50:32.778Z,0.30
2022-09-29T03:53:02.140Z,0.30
2022-09-29T03:55:31.533Z,0.30
2022-09-29T03:58:00.824Z,0.25
2022-09-29T04:00:30.306Z,0.30
2022-09-29T04:02:59.764Z,0.30
2022-09-29T04:05:30.686Z,0.30
2022-09-29T04:08:00.111Z,0.30
2022-09-29T04:10:29.485Z,0.30
2022-09-29T04:12:58.823Z,0.30
2022-09-29T04:15:28.269Z,0.28
2022-09-29T04:17:57.847Z,0.20
2022-09-29T04:20:28.024Z,0.30
2022-09-29T04:22:57.390Z,0.30
2022-09-29T04:25:28.120Z,0.30
2022-09-29T04:27:57.496Z,0.25
2022-09-29T04:30:26.864Z,0.30
2022-09-29T04:32:59.316Z,0.30
2022-09-29T04:35:30.132Z,0.30
2022-09-29T04:38:02.445Z,0.30
2022-09-29T04:40:31.890Z,0.30
2022-09-29T04:43:02.035Z,0.30
2022-09-29T04:45:32.082Z,0.30
2022-09-29T04:48:01.800Z,0.30
2022-09-29T04:50:31.980Z,0.30
2022-09-29T04:53:01.568Z,0.20
2022-09-29T04:55:30.975Z,0.30
2022-09-29T04:58:00.455Z,0.30
2022-09-29T05:00:29.815Z,0.30
2022-09-29T05:03:00.456Z,0.30
2022-09-29T05:05:29.969Z,0.20
2022-09-29T05:07:59.660Z,0.30
2022-09-29T05:10:28.929Z,0.30
2022-09-29T05:12:58.378Z,0.30
2022-09-29T05:15:27.707Z,0.30
2022-09-29T05:17:57.091Z,0.30
2022-09-29T05:20:30.175Z,0.30
2022-09-29T05:23:10.077Z,0.30
2022-09-29T05:25:40.543Z,0.30
2022-09-29T05:28:11.374Z,0.22
2022-09-29T05:30:42.127Z,0.20
2022-09-29T05:33:11.507Z,0.28
2022-09-29T05:35:41.411Z,0.30
2022-09-29T05:38:10.773Z,0.30
2022-09-29T05:40:40.213Z,0.30
2022-09-29T05:43:09.684Z,0.30
2022-09-29T05:45:39.051Z,0.30
2022-09-29T05:48:08.769Z,0.30
2022-09-29T05:50:44.282Z,0.20
2022-09-29T05:53:13.970Z,0.30
2022-09-29T05:55:43.326Z,0.30
2022-09-29T05:58:12.671Z,0.22
2022-09-29T06:00:42.376Z,0.30
2022-09-29T06:03:12.739Z,0.28
2022-09-29T06:05:45.298Z,0.25
2022-09-29T06:08:14.707Z,0.30
2022-09-29T06:10:44.029Z,0.30
2022-09-29T06:13:13.587Z,0.30
2022-09-29T06:15:42.997Z,0.30
2022-09-29T06:18:12.382Z,0.30
2022-09-29T06:20:41.844Z,0.30
2022-09-29T06:23:11.312Z,0.30
2022-09-29T06:25:40.921Z,0.30
2022-09-29T06:28:10.273Z,0.30
2022-09-29T06:30:39.634Z,0.30
2022-09-29T06:33:09.253Z,0.30
2022-09-29T06:35:57.618Z,0.20
2022-09-29T06:38:27.170Z,0.30
2022-09-29T06:40:56.888Z,0.30
2022-09-29T06:43:26.551Z,0.20
2022-09-29T06:45:55.979Z,0.22
2022-09-29T06:48:26.132Z,0.20
2022-09-29T06:51:07.020Z,0.30
2022-09-29T06:53:39.196Z,0.30
2022-09-29T06:56:09.880Z,0.20
2022-09-29T06:58:40.069Z,0.30
2022-09-29T07:01:10.631Z,0.20
2022-09-29T07:03:40.617Z,0.28
2022-09-29T07:06:20.002Z,0.30
2022-09-29T07:08:58.945Z,0.30
2022-09-29T07:11:30.996Z,0.22
2022-09-29T07:14:00.409Z,0.30
2022-09-29T07:16:32.990Z,0.20
2022-09-29T07:19:02.423Z,0.30
2022-09-29T07:21:31.781Z,0.30
2022-09-29T07:24:02.535Z,0.20
2022-09-29T07:26:32.332Z,0.20
2022-09-29T07:29:01.783Z,0.20
2022-09-29T07:31:40.927Z,0.30
2022-09-29T07:34:14.718Z,0.30
2022-09-29T07:36:44.054Z,0.20
2022-09-29T07:39:13.988Z,0.30
2022-09-29T07:42:09.433Z,0.20
2022-09-29T07:44:39.044Z,0.30
2022-09-29T07:47:08.560Z,0.30
2022-09-29T07:49:38.062Z,0.30
2022-09-29T07:52:08.435Z,0.30
2022-09-29T07:54:37.787Z,0.30
2022-09-29T07:57:07.191Z,0.30
2022-09-29T07:59:36.592Z,0.20
2022-09-29T08:02:06.117Z,0.30
2022-09-29T08:04:35.554Z,0.20
2022-09-29T08:07:05.044Z,0.25
2022-09-29T08:09:41.013Z,0.30
2022-09-29T08:12:13.341Z,0.30
2022-09-29T08:14:44.401Z,0.20
2022-09-29T08:17:13.897Z,0.30
2022-09-29T08:19:43.286Z,0.30
2022-09-29T08:22:12.609Z,0.20
2022-09-29T08:24:43.010Z,0.30
2022-09-29T08:27:18.723Z,0.25
2022-09-29T08:29:49.926Z,0.30
2022-09-29T08:32:28.502Z,0.30
2022-09-29T08:34:57.964Z,0.20
2022-09-29T08:37:30.090Z,0.20
2022-09-29T08:40:06.088Z,0.30
2022-09-29T08:43:08.965Z,0.20
2022-09-29T08:46:00.864Z,0.20
2022-09-29T08:48:50.300Z,0.20
2022-09-29T08:51:51.510Z,0.20
2022-09-29T08:54:50.826Z,0.30
2022-09-29T08:57:21.054Z,0.20
2022-09-29T08:59:57.644Z,0.20
2022-09-29T09:03:13.725Z,0.20
2022-09-29T09:06:21.452Z,0.20
2022-09-29T09:09:28.527Z,0.20
2022-09-29T09:12:31.351Z,0.20
2022-09-29T09:15:47.915Z,0.22
2022-09-29T09:18:44.372Z,0.20
2022-09-29T09:21:33.820Z,0.20
2022-09-29T09:24:28.725Z,0.20
2022-09-29T09:27:00.109Z,0.20
2022-09-29T09:29:42.920Z,0.10
2022-09-29T09:32:25.878Z,0.20
2022-09-29T09:35:27.067Z,0.10
2022-09-29T09:38:04.562Z,0.10
2022-09-29T09:40:53.047Z,0.10
2022-09-29T09:43:41.747Z,0.20
2022-09-29T09:46:41.717Z,0.10
2022-09-29T09:49:55.668Z,0.10
2022-09-29T09:52:46.725Z,0.10
2022-09-29T09:55:27.460Z,0.10
2022-09-29T09:58:24.194Z,0.10
2022-09-29T10:01:12.411Z,0.10
2022-09-29T10:03:42.116Z,0.10
2022-09-29T10:06:11.694Z,0.10
2022-09-29T10:08:42.405Z,0.10
2022-09-29T10:11:31.978Z,0.10
2022-09-29T10:14:13.774Z,0.10
2022-09-29T10:16:51.577Z,0.10
2022-09-29T10:19:23.721Z,0.10
2022-09-29T10:21:53.667Z,0.10
2022-09-29T10:24:29.915Z,0.10
2022-09-29T10:27:02.876Z,0.10
2022-09-29T10:29:40.097Z,0.10
2022-09-29T10:32:23.401Z,0.10
2022-09-29T10:35:23.242Z,0.10
2022-09-29T10:38:08.014Z,0.10
2022-09-29T10:40:37.498Z,0.10
2022-09-29T10:43:31.724Z,0.10
2022-09-29T10:46:01.212Z,0.10
2022-09-29T10:48:30.690Z,0.10
2022-09-29T10:51:05.208Z,0.10
2022-09-29T10:53:38.790Z,0.10
2022-09-29T10:56:25.174Z,0.10
2022-09-29T10:59:03.285Z,0.10
2022-09-29T11:01:51.819Z,0.10
2022-09-29T11:04:36.553Z,0.00
2022-09-29T11:07:12.681Z,0.10
2022-09-29T11:09:44.965Z,0.10
2022-09-29T11:12:38.950Z,0.10
2022-09-29T11:15:38.630Z,0.10
2022-09-29T11:18:26.346Z,0.10
2022-09-29T11:21:33.080Z,0.10
2022-09-29T11:24:52.468Z,0.10
2022-09-29T11:27:56.867Z,0.10
2022-09-29T11:30:56.731Z,0.10
2022-09-29T11:34:21.747Z,0.10
2022-09-29T11:37:12.410Z,0.10
2022-09-29T11:39:57.568Z,0.10
2022-09-29T11:42:47.688Z,0.10
2022-09-29T11:45:28.544Z,0.10
2022-09-29T11:48:31.173Z,0.10
2022-09-29T11:51:28.887Z,0.10
2022-09-29T11:56:59.200Z,0.10
2022-09-29T12:00:02.263Z,0.10
2022-09-29T12:03:00.014Z,0.10
2022-09-29T12:05:50.017Z,0.10
2022-09-29T12:09:13.417Z,0.10
2022-09-29T12:12:28.581Z,0.10
2022-09-29T12:15:17.336Z,0.10
2022-09-29T12:17:55.913Z,0.10
2022-09-29T12:20:32.000Z,0.10
2022-09-29T12:23:05.876Z,0.10
2022-09-29T12:25:43.569Z,0.10
2022-09-29T12:28:22.274Z,0.10
2022-09-29T12:31:14.709Z,0.10
2022-09-29T12:34:19.908Z,0.13
2022-09-29T12:37:27.878Z,0.10
2022-09-29T12:40:20.133Z,0.10
2022-09-29T12:43:05.188Z,0.10
2022-09-29T12:45:57.990Z,0.10
2022-09-29T12:48:51.523Z,0.10
2022-09-29T12:51:52.514Z,0.10
2022-09-29T12:54:40.541Z,0.10
2022-09-29T12:57:20.649Z,0.10
2022-09-29T13:00:06.650Z,0.10
2022-09-29T13:02:51.032Z,0.10
2022-09-29T13:06:18.383Z,0.20
2022-09-29T13:08:58.463Z,0.10
2022-09-29T13:12:17.873Z,0.10
2022-09-29T13:15:01.158Z,0.10
2022-09-29T13:17:51.405Z,0.10
2022-09-29T13:21:01.052Z,0.10
2022-09-29T13:23:33.412Z,0.10
2022-09-29T13:26:24.344Z,0.10
2022-09-29T13:29:05.436Z,0.10
2022-09-29T13:31:45.259Z,0.10
2022-09-29T13:34:57.212Z,0.10
2022-09-29T13:37:42.722Z,0.10
2022-09-29T13:40:26.996Z,0.10
2022-09-29T13:42:59.476Z,0.10
2022-09-29T13:45:31.651Z,0.10
2022-09-29T13:48:31.680Z,0.10
2022-09-29T13:51:46.602Z,0.10
2022-09-29T13:54:42.405Z,0.10
2022-09-29T13:57:26.090Z,0.10
2022-09-29T13:59:56.237Z,0.10
2022-09-29T14:02:46.900Z,0.10
2022-09-29T14:05:25.710Z,0.10
2022-09-29T14:07:55.154Z,0.10
2022-09-29T14:10:36.991Z,0.10
2022-09-29T14:13:08.693Z,0.10
2022-09-29T14:15:52.089Z,0.10
2022-09-29T14:18:37.029Z,0.10
2022-09-29T14:21:32.105Z,0.10
2022-09-29T14:24:01.662Z,0.10
2022-09-29T14:26:54.540Z,0.10
2022-09-29T14:29:35.253Z,0.20
2022-09-29T14:32:05.872Z,0.20
2022-09-29T14:34:35.432Z,0.10
2022-09-29T14:37:07.276Z,0.20
2022-09-29T14:39:40.364Z,0.20
2022-09-29T14:42:17.732Z,0.20
2022-09-29T14:45:05.814Z,0.20
2022-09-29T14:48:13.302Z,0.20
2022-09-29T14:51:45.189Z,0.20
2022-09-29T14:54:34.251Z,0.20
2022-09-29T14:58:18.561Z,0.20
2022-09-29T15:01:11.011Z,0.20
2022-09-29T15:04:12.671Z,0.20
2022-09-29T15:06:51.515Z,0.20
2022-09-29T15:09:25.085Z,0.20
2022-09-29T15:12:02.908Z,0.20
2022-09-29T15:14:39.642Z,0.20
2022-09-29T15:17:32.224Z,0.20
2022-09-29T15:20:09.840Z,0.20
2022-09-29T15:23:18.557Z,0.20
2022-09-29T15:25:48.415Z,0.20
2022-09-29T15:28:39.110Z,0.20
2022-09-29T15:31:18.984Z,0.20
2022-09-29T15:33:49.358Z,0.20
2022-09-29T15:36:27.050Z,0.20
2022-09-29T15:39:04.798Z,0.20
2022-09-29T15:41:35.886Z,0.20
2022-09-29T15:44:18.610Z,0.20
2022-09-29T15:46:56.115Z,0.20
2022-09-29T15:49:30.263Z,0.20
2022-09-29T15:52:19.787Z,0.20
2022-09-29T15:54:58.348Z,0.20
2022-09-29T15:57:47.137Z,0.20
2022-09-29T16:00:23.002Z,0.20
2022-09-29T16:03:41.227Z,0.20
2022-09-29T16:06:19.969Z,0.20
2022-09-29T16:08:55.528Z,0.20
2022-09-29T16:11:38.314Z,0.20
2022-09-29T16:14:12.161Z,0.20
2022-09-29T16:16:47.809Z,0.20
2022-09-29T16:19:28.886Z,0.20
2022-09-29T16:22:08.883Z,0.20
2022-09-29T16:25:09.091Z,0.20
2022-09-29T16:27:54.611Z,0.20
2022-09-29T16:30:40.487Z,0.20
2022-09-29T16:33:24.678Z,0.20
2022-09-29T16:36:20.342Z,0.20
2022-09-29T16:38:52.384Z,0.20
2022-09-29T16:41:40.812Z,0.30
2022-09-29T16:44:18.641Z,0.20
2022-09-29T16:46:59.977Z,0.20
2022-09-29T16:49:37.961Z,0.20
2022-09-29T16:52:26.719Z,0.20
2022-09-29T16:55:17.935Z,0.20
2022-09-29T16:58:15.138Z,0.20
2022-09-29T17:00:44.838Z,0.20
2022-09-29T17:03:15.051Z,0.20
2022-09-29T17:05:49.414Z,0.20
2022-09-29T17:08:28.965Z,0.20
2022-09-29T17:10:58.337Z,0.20
2022-09-29T17:13:34.448Z,0.30
2022-09-29T17:16:08.394Z,0.30
2022-09-29T17:18:37.782Z,0.20
2022-09-29T17:21:11.210Z,0.20
2022-09-29T17:23:40.997Z,0.20
2022-09-29T17:27:03.162Z,0.30
2022-09-29T17:29:33.514Z,0.20
2022-09-29T17:32:20.051Z,0.30
2022-09-29T17:34:59.587Z,0.30
2022-09-29T17:37:29.155Z,0.30
2022-09-29T17:40:10.510Z,0.28
2022-09-29T17:42:40.328Z,0.20
2022-09-29T17:45:15.940Z,0.20
2022-09-29T17:47:49.925Z,0.30
2022-09-29T17:50:36.541Z,0.30
2022-09-29T17:53:05.993Z,0.30
2022-09-29T17:55:35.494Z,0.30
2022-09-29T17:58:16.321Z,0.30
2022-09-29T18:00:57.998Z,0.30
2022-09-29T18:03:29.351Z,0.30
2022-09-29T18:06:00.163Z,0.30
2022-09-29T18:08:29.813Z,0.30
2022-09-29T18:11:02.285Z,0.30
2022-09-29T18:13:32.158Z,0.30
2022-09-29T18:16:02.240Z,0.30
2022-09-29T18:18:35.660Z,0.30
2022-09-29T18:21:06.341Z,0.30
2022-09-29T18:23:37.169Z,0.30
2022-09-29T18:26:07.618Z,0.30
2022-09-29T18:28:37.155Z,0.30
2022-09-29T18:31:17.459Z,0.30
2022-09-29T18:33:46.965Z,0.30
2022-09-29T18:36:19.189Z,0.30
2022-09-29T18:38:48.998Z,0.30
2022-09-29T18:41:21.527Z,0.30
2022-09-29T18:43:51.003Z,0.30
2022-09-29T18:46:23.819Z,0.30
2022-09-29T18:48:53.187Z,0.20
2022-09-29T18:51:22.747Z,0.30
2022-09-29T18:53:52.549Z,0.30
2022-09-29T18:56:21.982Z,0.30
2022-09-29T18:58:55.477Z,0.30
2022-09-29T19:01:30.104Z,0.30
2022-09-29T19:04:02.653Z,0.30
2022-09-29T19:06:36.886Z,0.30
2022-09-29T19:09:06.661Z,0.30
2022-09-29T19:11:36.134Z,0.25
2022-09-29T19:14:08.235Z,0.30
2022-09-29T19:16:37.613Z,0.30
2022-09-29T19:19:12.018Z,0.30
2022-09-29T19:21:42.606Z,0.40
2022-09-29T19:24:11.994Z,0.30
2022-09-29T19:26:44.359Z,0.20
2022-09-29T19:29:13.797Z,0.30
2022-09-29T19:31:46.734Z,0.30
2022-09-29T19:34:16.468Z,0.35
2022-09-29T19:36:45.895Z,0.30
2022-09-29T19:39:16.109Z,0.30
2022-09-29T19:41:45.552Z,0.30
2022-09-29T19:44:19.133Z,0.40
2022-09-29T19:46:53.271Z,0.30
2022-09-29T19:49:22.812Z,0.30
2022-09-29T19:51:58.047Z,0.30
2022-09-29T19:54:36.141Z,0.30
2022-09-29T19:57:11.738Z,0.20
2022-09-29T19:59:42.011Z,0.30
2022-09-29T20:02:14.816Z,0.30
2022-09-29T20:04:46.903Z,0.30
2022-09-29T20:07:16.420Z,0.30
2022-09-29T20:09:45.880Z,0.30
2022-09-29T20:12:19.334Z,0.30
2022-09-29T20:14:50.744Z,0.30
2022-09-29T20:17:20.245Z,0.20
2022-09-29T20:19:49.701Z,0.30
2022-09-29T20:22:20.180Z,0.30
2022-09-29T20:24:49.513Z,0.30
2022-09-29T20:27:18.898Z,0.30
2022-09-29T20:29:48.585Z,0.30
2022-09-29T20:32:22.983Z,0.30
2022-09-29T20:34:59.772Z,0.20
2022-09-29T20:37:32.031Z,0.30
2022-09-29T20:40:02.198Z,0.30
2022-09-29T20:42:38.571Z,0.30
2022-09-29T20:45:08.700Z,0.30
2022-09-29T20:47:39.048Z,0.30
2022-09-29T20:50:11.257Z,0.30
2022-09-29T20:52:44.374Z,0.30
2022-09-29T20:55:16.033Z,0.30
2022-09-29T20:57:46.395Z,0.30
2022-09-29T21:00:16.173Z,0.30
2022-09-29T21:02:51.687Z,0.30
2022-09-29T21:05:21.266Z,0.25
2022-09-29T21:07:55.956Z,0.30
2022-09-29T21:10:25.899Z,0.30
2022-09-29T21:12:55.751Z,0.20
2022-09-29T21:15:25.179Z,0.30
2022-09-29T21:17:57.117Z,0.30
2022-09-29T21:20:27.272Z,0.28
2022-09-29T21:22:56.697Z,0.30
2022-09-29T21:25:27.367Z,0.30
2022-09-29T21:27:56.754Z,0.20
2022-09-29T21:30:26.340Z,0.20
2022-09-29T21:32:55.729Z,0.22
2022-09-29T21:35:25.158Z,0.30
2022-09-29T21:37:54.618Z,0.20
2022-09-29T21:40:24.981Z,0.20
2022-09-29T21:42:54.342Z,0.30
2022-09-29T21:45:23.746Z,0.30
2022-09-29T21:48:08.489Z,0.22
2022-09-29T21:50:38.009Z,0.20
2022-09-29T21:53:13.036Z,0.30
2022-09-29T21:55:47.223Z,0.30
2022-09-29T21:58:16.604Z,0.30
2022-09-29T22:00:47.748Z,0.30
2022-09-29T22:03:17.728Z,0.22
2022-09-29T22:05:47.131Z,0.20
2022-09-29T22:08:17.038Z,0.20
2022-09-29T22:10:50.681Z,0.30
2022-09-29T22:13:24.993Z,0.20
2022-09-29T22:16:06.027Z,0.20
2022-09-29T22:18:41.505Z,0.20
2022-09-29T22:21:15.586Z,0.30
2022-09-29T22:23:48.935Z,0.20
2022-09-29T22:26:18.388Z,0.30
2022-09-29T22:28:48.195Z,0.30
2022-09-29T22:31:18.077Z,0.30
2022-09-29T22:33:52.637Z,0.30
2022-09-29T22:36:23.393Z,0.25
2022-09-29T22:38:53.288Z,0.25
2022-09-29T22:41:26.096Z,0.30
2022-09-29T22:43:59.258Z,0.30
2022-09-29T22:46:33.218Z,0.20
2022-09-29T22:49:03.447Z,0.30
2022-09-29T22:51:33.388Z,0.28
2022-09-29T22:54:02.855Z,0.30
2022-09-29T22:56:32.572Z,0.20
2022-09-29T22:59:04.742Z,0.30
2022-09-29T23:01:34.680Z,0.30
2022-09-29T23:04:04.482Z,0.20
2022-09-29T23:06:34.849Z,0.30
2022-09-29T23:09:04.621Z,0.30
2022-09-29T23:11:36.968Z,0.30
2022-09-29T23:14:07.220Z,0.30
2022-09-29T23:16:36.689Z,0.30
2022-09-29T23:19:06.189Z,0.30
2022-09-29T23:21:35.549Z,0.30
2022-09-29T23:24:08.172Z,0.30
2022-09-29T23:26:37.616Z,0.20
2022-09-29T23:29:07.924Z,0.30
2022-09-29T23:31:38.223Z,0.30
2022-09-29T23:34:07.704Z,0.30
2022-09-29T23:36:37.175Z,0.30
2022-09-29T23:39:14.360Z,0.20
2022-09-29T23:41:46.368Z,0.30
2022-09-29T23:44:23.671Z,0.30
2022-09-29T23:46:55.639Z,0.30
2022-09-29T23:49:28.999Z,0.20
2022-09-29T23:52:02.414Z,0.20
2022-09-29T23:54:31.956Z,0.30
2022-09-29T23:57:01.329Z,0.30
2022-09-29T23:59:31.113Z,0.30
